sensor_id;sensor_type;location;lat;lon;timestamp;pressure;altitude;pressure_sealevel;temperature;humidity
21433;BME280;18592;49.708;10.900;2022-10-04T00:01:52;99439.66;;;12.41;56.30
21433;BME280;18592;49.708;10.900;2022-10-04T00:04:08;99431.09;;;12.38;56.16
21433;BME280;18592;49.708;10.900;2022-10-04T00:06:23;99434.94;;;12.37;56.34
21433;BME280;18592;49.708;10.900;2022-10-04T00:10:37;99430.53;;;12.36;56.11
21433;BME280;18592;49.708;10.900;2022-10-04T00:12:45;99435.41;;;12.34;56.27
21433;BME280;18592;49.708;10.900;2022-10-04T00:14:50;99433.72;;;12.33;56.16
21433;BME280;18592;49.708;10.900;2022-10-04T00:16:53;99439.19;;;12.33;56.24
21433;BME280;18592;49.708;10.900;2022-10-04T00:21:16;99428.75;;;12.30;56.29
21433;BME280;18592;49.708;10.900;2022-10-04T00:23:27;99426.25;;;12.28;56.36
21433;BME280;18592;49.708;10.900;2022-10-04T00:25:36;99429.25;;;12.27;56.70
21433;BME280;18592;49.708;10.900;2022-10-04T00:27:39;99428.16;;;12.28;56.05
21433;BME280;18592;49.708;10.900;2022-10-04T00:38:27;99422.56;;;12.23;56.63
21433;BME280;18592;49.708;10.900;2022-10-04T00:40:33;99409.16;;;12.21;56.48
21433;BME280;18592;49.708;10.900;2022-10-04T00:42:45;99417.59;;;12.20;56.42
21433;BME280;18592;49.708;10.900;2022-10-04T00:46:56;99410.69;;;12.17;56.38
21433;BME280;18592;49.708;10.900;2022-10-04T00:49:04;99413.69;;;12.16;56.76
21433;BME280;18592;49.708;10.900;2022-10-04T00:53:47;99415.25;;;12.12;56.76
21433;BME280;18592;49.708;10.900;2022-10-04T00:55:56;99404.31;;;12.12;56.78
21433;BME280;18592;49.708;10.900;2022-10-04T00:58:02;99404.31;;;12.12;56.60
21433;BME280;18592;49.708;10.900;2022-10-04T01:00:14;99408.94;;;12.11;56.76
21433;BME280;18592;49.708;10.900;2022-10-04T01:03:09;99405.38;;;12.10;56.79
21433;BME280;18592;49.708;10.900;2022-10-04T01:04:50;99406.44;;;12.09;56.88
21433;BME280;18592;49.708;10.900;2022-10-04T01:06:57;99407.53;;;12.08;56.79
21433;BME280;18592;49.708;10.900;2022-10-04T01:09:05;99413.00;;;12.08;56.81
21433;BME280;18592;49.708;10.900;2022-10-04T01:11:13;99405.84;;;12.07;56.86
21433;BME280;18592;49.708;10.900;2022-10-04T01:13:22;99406.94;;;12.06;56.89
21433;BME280;18592;49.708;10.900;2022-10-04T01:17:37;99430.69;;;12.06;56.84
21433;BME280;18592;49.708;10.900;2022-10-04T01:19:49;99422.72;;;12.04;56.76
21433;BME280;18592;49.708;10.900;2022-10-04T01:28:27;99413.59;;;11.99;56.87
21433;BME280;18592;49.708;10.900;2022-10-04T01:30:29;99416.34;;;11.99;56.79
21433;BME280;18592;49.708;10.900;2022-10-04T01:32:31;99413.81;;;11.97;56.87
21433;BME280;18592;49.708;10.900;2022-10-04T01:34:33;99413.22;;;11.95;56.78
21433;BME280;18592;49.708;10.900;2022-10-04T01:36:34;99408.81;;;11.94;56.76
21433;BME280;18592;49.708;10.900;2022-10-04T01:38:37;99405.50;;;11.92;56.80
21433;BME280;18592;49.708;10.900;2022-10-04T01:40:45;99403.88;;;11.91;56.68
21433;BME280;18592;49.708;10.900;2022-10-04T01:42:51;99406.81;;;11.90;56.81
21433;BME280;18592;49.708;10.900;2022-10-04T01:45:02;99419.91;;;11.88;56.78
21433;BME280;18592;49.708;10.900;2022-10-04T01:47:43;99414.69;;;11.86;56.75
21433;BME280;18592;49.708;10.900;2022-10-04T01:49:47;99408.59;;;11.84;56.76
21433;BME280;18592;49.708;10.900;2022-10-04T01:52:06;99400.91;;;11.81;56.62
21433;BME280;18592;49.708;10.900;2022-10-04T01:54:12;99398.16;;;11.81;56.78
21433;BME280;18592;49.708;10.900;2022-10-04T01:56:19;99391.03;;;11.80;56.72
21433;BME280;18592;49.708;10.900;2022-10-04T01:58:25;99388.56;;;11.79;56.69
21433;BME280;18592;49.708;10.900;2022-10-04T02:00:30;99389.34;;;11.79;56.71
21433;BME280;18592;49.708;10.900;2022-10-04T02:02:36;99389.59;;;11.78;56.85
21433;BME280;18592;49.708;10.900;2022-10-04T02:04:42;99402.44;;;11.77;56.84
21433;BME280;18592;49.708;10.900;2022-10-04T02:06:45;99387.13;;;11.76;56.78
21433;BME280;18592;49.708;10.900;2022-10-04T02:08:50;99388.19;;;11.75;56.94
21433;BME280;18592;49.708;10.900;2022-10-04T02:10:59;99395.53;;;11.75;56.75
21433;BME280;18592;49.708;10.900;2022-10-04T02:13:07;99390.34;;;11.73;56.89
21433;BME280;18592;49.708;10.900;2022-10-04T02:15:11;99388.66;;;11.72;56.83
21433;BME280;18592;49.708;10.900;2022-10-04T02:17:13;99385.34;;;11.70;56.83
21433;BME280;18592;49.708;10.900;2022-10-04T02:19:26;99383.66;;;11.69;56.76
21433;BME280;18592;49.708;10.900;2022-10-04T02:21:34;99383.88;;;11.68;57.03
21433;BME280;18592;49.708;10.900;2022-10-04T02:23:42;99378.66;;;11.66;56.79
21433;BME280;18592;49.708;10.900;2022-10-04T02:25:44;99368.81;;;11.65;56.93
21433;BME280;18592;49.708;10.900;2022-10-04T02:27:46;99377.25;;;11.64;56.95
21433;BME280;18592;49.708;10.900;2022-10-04T02:29:59;99369.06;;;11.64;56.85
21433;BME280;18592;49.708;10.900;2022-10-04T02:32:05;99354.56;;;11.63;57.03
21433;BME280;18592;49.708;10.900;2022-10-04T02:34:26;99346.84;;;11.60;56.97
21433;BME280;18592;49.708;10.900;2022-10-04T02:36:28;99352.31;;;11.60;57.01
21433;BME280;18592;49.708;10.900;2022-10-04T02:38:33;99351.47;;;11.60;57.09
21433;BME280;18592;49.708;10.900;2022-10-04T02:43:28;99345.63;;;11.56;57.14
21433;BME280;18592;49.708;10.900;2022-10-04T02:50:39;99370.47;;;11.55;57.19
21433;BME280;18592;49.708;10.900;2022-10-04T02:52:44;99362.53;;;11.53;57.35
21433;BME280;18592;49.708;10.900;2022-10-04T02:55:03;99359.16;;;11.51;57.59
21433;BME280;18592;49.708;10.900;2022-10-04T02:57:14;99366.31;;;11.52;57.60
21433;BME280;18592;49.708;10.900;2022-10-04T02:59:17;99366.06;;;11.54;57.48
21433;BME280;18592;49.708;10.900;2022-10-04T03:01:34;99376.16;;;11.53;57.54
21433;BME280;18592;49.708;10.900;2022-10-04T03:03:39;99370.72;;;11.53;57.71
21433;BME280;18592;49.708;10.900;2022-10-04T03:07:55;99375.91;;;11.55;57.50
21433;BME280;18592;49.708;10.900;2022-10-04T03:10:08;99370.47;;;11.55;57.77
21433;BME280;18592;49.708;10.900;2022-10-04T03:12:12;99378.66;;;11.55;57.59
21433;BME280;18592;49.708;10.900;2022-10-04T03:14:20;99376.75;;;11.55;58.05
21433;BME280;18592;49.708;10.900;2022-10-04T03:16:22;99380.31;;;11.56;57.71
21433;BME280;18592;49.708;10.900;2022-10-04T03:18:25;99388.28;;;11.57;57.68
21433;BME280;18592;49.708;10.900;2022-10-04T03:20:27;99388.28;;;11.57;57.65
21433;BME280;18592;49.708;10.900;2022-10-04T03:22:29;99382.81;;;11.57;57.72
21433;BME280;18592;49.708;10.900;2022-10-04T03:26:41;99374.38;;;11.59;57.81
21433;BME280;18592;49.708;10.900;2022-10-04T03:28:44;99368.09;;;11.58;57.56
21433;BME280;18592;49.708;10.900;2022-10-04T03:30:47;99356.94;;;11.60;57.75
21433;BME280;18592;49.708;10.900;2022-10-04T03:32:49;99362.16;;;11.61;57.78
21433;BME280;18592;49.708;10.900;2022-10-04T03:34:54;99362.16;;;11.61;57.73
21433;BME280;18592;49.708;10.900;2022-10-04T03:36:58;99362.16;;;11.61;57.71
21433;BME280;18592;49.708;10.900;2022-10-04T03:39:06;99357.75;;;11.60;57.81
21433;BME280;18592;49.708;10.900;2022-10-04T03:41:10;99361.34;;;11.61;57.59
21433;BME280;18592;49.708;10.900;2022-10-04T03:43:13;99347.91;;;11.59;57.71
21433;BME280;18592;49.708;10.900;2022-10-04T03:45:18;99345.16;;;11.59;57.88
21433;BME280;18592;49.708;10.900;2022-10-04T03:47:32;99355.50;;;11.57;57.83
21433;BME280;18592;49.708;10.900;2022-10-04T03:49:36;99360.72;;;11.59;57.63
21433;BME280;18592;49.708;10.900;2022-10-04T03:51:43;99360.72;;;11.59;57.88
21433;BME280;18592;49.708;10.900;2022-10-04T03:53:56;99350.63;;;11.59;57.84
21433;BME280;18592;49.708;10.900;2022-10-04T03:55:59;99351.72;;;11.58;57.77
21433;BME280;18592;49.708;10.900;2022-10-04T03:58:06;99354.44;;;11.58;57.72
21433;BME280;18592;49.708;10.900;2022-10-04T04:00:14;99359.91;;;11.58;58.02
21433;BME280;18592;49.708;10.900;2022-10-04T04:07:13;99341.84;;;11.57;58.05
21433;BME280;18592;49.708;10.900;2022-10-04T04:09:21;99337.22;;;11.58;58.01
21433;BME280;18592;49.708;10.900;2022-10-04T04:11:25;99335.09;;;11.60;57.87
21433;BME280;18592;49.708;10.900;2022-10-04T04:13:46;99334.03;;;11.61;58.26
21433;BME280;18592;49.708;10.900;2022-10-04T04:15:57;99337.59;;;11.61;58.02
21433;BME280;18592;49.708;10.900;2022-10-04T04:18:03;99339.22;;;11.62;57.91
21433;BME280;18592;49.708;10.900;2022-10-04T04:22:29;99337.09;;;11.64;57.96
21433;BME280;18592;49.708;10.900;2022-10-04T04:24:31;99328.09;;;11.64;57.92
21433;BME280;18592;49.708;10.900;2022-10-04T04:26:37;99328.91;;;11.64;57.96
21433;BME280;18592;49.708;10.900;2022-10-04T04:28:49;99330.81;;;11.64;58.17
21433;BME280;18592;49.708;10.900;2022-10-04T04:30:59;99345.06;;;11.66;58.04
21433;BME280;18592;49.708;10.900;2022-10-04T04:33:08;99356.81;;;11.66;58.09
21433;BME280;18592;49.708;10.900;2022-10-04T04:35:29;99366.47;;;11.69;57.84
21433;BME280;18592;49.708;10.900;2022-10-04T04:37:34;99368.94;;;11.70;58.08
21433;BME280;18592;49.708;10.900;2022-10-04T04:39:36;99375.84;;;11.73;58.04
21433;BME280;18592;49.708;10.900;2022-10-04T04:41:39;99375.59;;;11.74;57.94
21433;BME280;18592;49.708;10.900;2022-10-04T04:43:42;99369.66;;;11.77;57.95
21433;BME280;18592;49.708;10.900;2022-10-04T04:45:46;99368.13;;;11.81;57.87
21433;BME280;18592;49.708;10.900;2022-10-04T04:48:13;99352.53;;;11.82;57.78
21433;BME280;18592;49.708;10.900;2022-10-04T04:50:20;99342.44;;;11.82;57.54
21433;BME280;18592;49.708;10.900;2022-10-04T04:52:27;99340.56;;;11.83;57.79
21433;BME280;18592;49.708;10.900;2022-10-04T04:54:29;99353.16;;;11.84;57.96
21433;BME280;18592;49.708;10.900;2022-10-04T04:56:32;99346.38;;;11.86;58.03
21433;BME280;18592;49.708;10.900;2022-10-04T04:58:36;99334.38;;;11.87;57.97
21433;BME280;18592;49.708;10.900;2022-10-04T05:00:39;99333.31;;;11.88;58.05
21433;BME280;18592;49.708;10.900;2022-10-04T05:02:52;99329.47;;;11.89;57.91
21433;BME280;18592;49.708;10.900;2022-10-04T05:07:26;99337.09;;;11.87;57.79
21433;BME280;18592;49.708;10.900;2022-10-04T05:09:33;99338.78;;;11.88;58.35
21433;BME280;18592;49.708;10.900;2022-10-04T05:11:37;99331.41;;;11.89;58.03
21433;BME280;18592;49.708;10.900;2022-10-04T05:15:44;99341.25;;;11.90;57.95
21433;BME280;18592;49.708;10.900;2022-10-04T05:17:51;99342.94;;;11.91;57.95
21433;BME280;18592;49.708;10.900;2022-10-04T05:19:57;99339.72;;;11.94;57.96
21433;BME280;18592;49.708;10.900;2022-10-04T05:22:09;99344.34;;;11.93;57.84
21433;BME280;18592;49.708;10.900;2022-10-04T05:24:25;99341.59;;;11.93;57.82
21433;BME280;18592;49.708;10.900;2022-10-04T05:26:32;99344.94;;;11.95;57.88
21433;BME280;18592;49.708;10.900;2022-10-04T05:28:33;99346.59;;;11.96;57.81
21433;BME280;18592;49.708;10.900;2022-10-04T05:30:46;99351.22;;;11.96;57.84
21433;BME280;18592;49.708;10.900;2022-10-04T05:33:00;99352.06;;;11.96;58.00
21433;BME280;18592;49.708;10.900;2022-10-04T05:35:14;99343.63;;;11.98;57.96
21433;BME280;18592;49.708;10.900;2022-10-04T05:37:24;99336.25;;;11.98;57.91
21433;BME280;18592;49.708;10.900;2022-10-04T05:44:22;99335.16;;;11.99;57.98
21433;BME280;18592;49.708;10.900;2022-10-04T05:46:34;99343.16;;;12.01;58.18
21433;BME280;18592;49.708;10.900;2022-10-04T05:48:45;99357.38;;;12.03;58.02
21433;BME280;18592;49.708;10.900;2022-10-04T05:50:51;99352.75;;;12.03;58.13
21433;BME280;18592;49.708;10.900;2022-10-04T05:58:32;99347.63;;;12.07;58.27
21433;BME280;18592;49.708;10.900;2022-10-04T06:00:49;99348.47;;;12.07;58.24
21433;BME280;18592;49.708;10.900;2022-10-04T06:05:48;99361.91;;;12.09;58.49
21433;BME280;18592;49.708;10.900;2022-10-04T06:08:21;99365.44;;;12.09;58.43
21433;BME280;18592;49.708;10.900;2022-10-04T06:15:01;99369.94;;;12.16;58.39
21433;BME280;18592;49.708;10.900;2022-10-04T06:17:30;99370.78;;;12.16;58.50
21433;BME280;18592;49.708;10.900;2022-10-04T06:20:05;99368.91;;;12.17;58.21
21433;BME280;18592;49.708;10.900;2022-10-04T06:22:19;99367.81;;;12.18;58.29
21433;BME280;18592;49.708;10.900;2022-10-04T06:24:28;99362.34;;;12.18;58.26
21433;BME280;18592;49.708;10.900;2022-10-04T06:26:41;99363.75;;;12.20;58.16
21433;BME280;18592;49.708;10.900;2022-10-04T06:28:50;99356.97;;;12.23;58.20
21433;BME280;18592;49.708;10.900;2022-10-04T06:31:12;99361.38;;;12.24;58.13
21433;BME280;18592;49.708;10.900;2022-10-04T06:34:06;99361.38;;;12.24;58.29
21433;BME280;18592;49.708;10.900;2022-10-04T06:59:03;99367.38;;;12.37;58.39
21433;BME280;18592;49.708;10.900;2022-10-04T07:01:35;99359.19;;;12.37;58.59
21433;BME280;18592;49.708;10.900;2022-10-04T07:06:13;99357.97;;;12.45;58.48
21433;BME280;18592;49.708;10.900;2022-10-04T07:08:30;99362.38;;;12.46;58.59
21433;BME280;18592;49.708;10.900;2022-10-04T07:10:50;99377.72;;;12.47;58.77
21433;BME280;18592;49.708;10.900;2022-10-04T07:15:13;99393.72;;;12.55;58.66
21433;BME280;18592;49.708;10.900;2022-10-04T07:17:34;99385.59;;;12.60;58.46
21433;BME280;18592;49.708;10.900;2022-10-04T07:19:38;99381.25;;;12.59;58.78
21433;BME280;18592;49.708;10.900;2022-10-04T07:23:59;99394.44;;;12.62;58.76
21433;BME280;18592;49.708;10.900;2022-10-04T07:26:24;99396.44;;;12.66;58.61
21433;BME280;18592;49.708;10.900;2022-10-04T07:28:32;99397.75;;;12.64;58.71
21433;BME280;18592;49.708;10.900;2022-10-04T07:31:03;99389.06;;;12.67;59.05
21433;BME280;18592;49.708;10.900;2022-10-04T07:33:11;99383.31;;;12.68;59.03
21433;BME280;18592;49.708;10.900;2022-10-04T07:35:27;99378.22;;;12.72;59.04
21433;BME280;18592;49.708;10.900;2022-10-04T07:37:47;99373.06;;;12.75;59.05
21433;BME280;18592;49.708;10.900;2022-10-04T07:39:58;99377.56;;;12.82;59.04
21433;BME280;18592;49.708;10.900;2022-10-04T07:44:33;99400.00;;;12.95;59.02
21433;BME280;18592;49.708;10.900;2022-10-04T07:48:49;99402.44;;;13.08;58.69
21433;BME280;18592;49.708;10.900;2022-10-04T07:51:37;99403.34;;;13.14;59.19
21433;BME280;18592;49.708;10.900;2022-10-04T07:53:48;99392.75;;;13.17;58.62
21433;BME280;18592;49.708;10.900;2022-10-04T07:56:00;99387.09;;;13.24;58.65
21433;BME280;18592;49.708;10.900;2022-10-04T07:58:28;99400.88;;;13.29;58.79
21433;BME280;18592;49.708;10.900;2022-10-04T08:00:58;99411.69;;;13.35;58.68
21433;BME280;18592;49.708;10.900;2022-10-04T08:03:39;99409.84;;;13.41;59.03
21433;BME280;18592;49.708;10.900;2022-10-04T08:05:58;99415.19;;;13.48;58.70
21433;BME280;18592;49.708;10.900;2022-10-04T08:08:21;99405.63;;;13.50;59.15
21433;BME280;18592;49.708;10.900;2022-10-04T08:10:32;99394.75;;;13.55;58.69
21433;BME280;18592;49.708;10.900;2022-10-04T08:12:56;99401.72;;;13.63;58.90
21433;BME280;18592;49.708;10.900;2022-10-04T08:27:24;99396.78;;;13.98;59.01
21433;BME280;18592;49.708;10.900;2022-10-04T08:29:42;99401.22;;;14.04;58.94
21433;BME280;18592;49.708;10.900;2022-10-04T08:32:13;99419.44;;;14.10;59.11
21433;BME280;18592;49.708;10.900;2022-10-04T08:34:30;99414.00;;;14.15;58.88
21433;BME280;18592;49.708;10.900;2022-10-04T08:38:45;99403.75;;;14.27;59.06
21433;BME280;18592;49.708;10.900;2022-10-04T08:41:21;99398.13;;;14.34;59.00
21433;BME280;18592;49.708;10.900;2022-10-04T08:46:10;99401.56;;;14.46;59.11
21433;BME280;18592;49.708;10.900;2022-10-04T08:55:46;99402.25;;;14.80;59.68
21433;BME280;18592;49.708;10.900;2022-10-04T08:58:00;99401.53;;;14.89;59.87
21433;BME280;18592;49.708;10.900;2022-10-04T09:04:47;99403.75;;;15.19;59.81
21433;BME280;18592;49.708;10.900;2022-10-04T09:09:47;99416.00;;;15.38;59.88
21433;BME280;18592;49.708;10.900;2022-10-04T09:15:03;99401.38;;;15.59;59.64
21433;BME280;18592;49.708;10.900;2022-10-04T09:19:21;99400.75;;;15.84;60.10
21433;BME280;18592;49.708;10.900;2022-10-04T09:21:41;99395.63;;;15.98;60.72
21433;BME280;18592;49.708;10.900;2022-10-04T09:24:10;99389.13;;;16.14;60.84
21433;BME280;18592;49.708;10.900;2022-10-04T09:26:44;99390.84;;;16.30;61.02
21433;BME280;18592;49.708;10.900;2022-10-04T09:29:13;99391.47;;;16.47;61.02
21433;BME280;18592;49.708;10.900;2022-10-04T09:34:30;99389.44;;;16.79;60.72
21433;BME280;18592;49.708;10.900;2022-10-04T09:36:53;99393.06;;;16.95;60.93
21433;BME280;18592;49.708;10.900;2022-10-04T09:45:05;99378.75;;;17.48;60.90
21433;BME280;18592;49.708;10.900;2022-10-04T09:47:28;99387.63;;;17.65;60.60
21433;BME280;18592;49.708;10.900;2022-10-04T09:50:22;99380.44;;;17.80;60.17
21433;BME280;18592;49.708;10.900;2022-10-04T09:52:11;99386.22;;;17.93;59.89
21433;BME280;18592;49.708;10.900;2022-10-04T09:57:02;99392.50;;;18.19;59.45
21433;BME280;18592;49.708;10.900;2022-10-04T10:04:22;99375.84;;;18.59;59.30
21433;BME280;18592;49.708;10.900;2022-10-04T10:06:44;99372.16;;;18.74;59.29
21433;BME280;18592;49.708;10.900;2022-10-04T10:09:08;99372.34;;;18.87;59.13
21433;BME280;18592;49.708;10.900;2022-10-04T10:16:50;99363.47;;;19.39;58.85
21433;BME280;18592;49.708;10.900;2022-10-04T10:19:02;99366.09;;;19.54;58.91
21433;BME280;18592;49.708;10.900;2022-10-04T10:21:20;99363.22;;;19.70;58.52
21433;BME280;18592;49.708;10.900;2022-10-04T10:24:05;99361.94;;;19.86;58.91
21433;BME280;18592;49.708;10.900;2022-10-04T10:34:02;99354.34;;;20.49;58.29
21433;BME280;18592;49.708;10.900;2022-10-04T10:40:57;99355.00;;;20.83;57.20
21433;BME280;18592;49.708;10.900;2022-10-04T10:48:23;99332.63;;;21.17;56.91
21433;BME280;18592;49.708;10.900;2022-10-04T10:50:55;99339.63;;;21.28;57.06
21433;BME280;18592;49.708;10.900;2022-10-04T10:53:24;99334.16;;;21.41;56.32
21433;BME280;18592;49.708;10.900;2022-10-04T11:03:42;99325.28;;;21.90;56.10
21433;BME280;18592;49.708;10.900;2022-10-04T11:05:56;99333.31;;;22.05;55.60
21433;BME280;18592;49.708;10.900;2022-10-04T11:08:55;99331.06;;;22.21;55.89
21433;BME280;18592;49.708;10.900;2022-10-04T11:16:01;99315.59;;;22.56;55.06
21433;BME280;18592;49.708;10.900;2022-10-04T11:18:41;99319.81;;;22.67;54.46
21433;BME280;18592;49.708;10.900;2022-10-04T11:30:37;99302.66;;;23.23;53.98
21433;BME280;18592;49.708;10.900;2022-10-04T11:33:26;99307.69;;;23.34;53.27
21433;BME280;18592;49.708;10.900;2022-10-04T11:35:46;99309.06;;;23.46;53.27
21433;BME280;18592;49.708;10.900;2022-10-04T11:45:52;99309.16;;;23.85;52.86
21433;BME280;18592;49.708;10.900;2022-10-04T11:55:46;99297.75;;;24.26;51.95
21433;BME280;18592;49.708;10.900;2022-10-04T11:58:30;99296.28;;;24.37;51.98
21433;BME280;18592;49.708;10.900;2022-10-04T12:06:35;99308.00;;;24.56;50.24
21433;BME280;18592;49.708;10.900;2022-10-04T12:14:36;99292.13;;;24.74;50.53
21433;BME280;18592;49.708;10.900;2022-10-04T12:17:07;99285.59;;;24.78;50.14
21433;BME280;18592;49.708;10.900;2022-10-04T12:19:48;99289.88;;;24.84;49.68
21433;BME280;18592;49.708;10.900;2022-10-04T12:24:46;99287.38;;;25.00;50.00
21433;BME280;18592;49.708;10.900;2022-10-04T12:27:21;99288.06;;;25.05;49.12
21433;BME280;18592;49.708;10.900;2022-10-04T12:31:59;99275.09;;;25.18;48.99
21433;BME280;18592;49.708;10.900;2022-10-04T12:38:57;99283.28;;;25.32;48.72
21433;BME280;18592;49.708;10.900;2022-10-04T12:41:22;99270.00;;;25.37;48.95
21433;BME280;18592;49.708;10.900;2022-10-04T12:46:41;99266.88;;;25.47;48.35
21433;BME280;18592;49.708;10.900;2022-10-04T12:51:22;99257.63;;;25.55;47.58
21433;BME280;18592;49.708;10.900;2022-10-04T12:55:46;99272.41;;;25.64;47.97
21433;BME280;18592;49.708;10.900;2022-10-04T12:58:02;99261.72;;;25.66;46.99
21433;BME280;18592;49.708;10.900;2022-10-04T13:04:53;99263.19;;;25.72;46.12
21433;BME280;18592;49.708;10.900;2022-10-04T13:09:47;99259.22;;;25.73;46.08
21433;BME280;18592;49.708;10.900;2022-10-04T13:15:28;99253.00;;;25.76;45.64
21433;BME280;18592;49.708;10.900;2022-10-04T13:17:30;99249.06;;;25.77;45.89
21433;BME280;18592;49.708;10.900;2022-10-04T13:19:37;99246.75;;;25.79;45.57
21433;BME280;18592;49.708;10.900;2022-10-04T13:24:10;99246.75;;;25.79;45.49
21433;BME280;18592;49.708;10.900;2022-10-04T13:26:45;99255.44;;;25.78;44.30
21433;BME280;18592;49.708;10.900;2022-10-04T13:31:22;99249.72;;;25.74;44.56
21433;BME280;18592;49.708;10.900;2022-10-04T13:33:41;99245.63;;;25.72;44.75
21433;BME280;18592;49.708;10.900;2022-10-04T13:35:54;99249.41;;;25.67;43.60
21433;BME280;18592;49.708;10.900;2022-10-04T13:38:17;99247.59;;;25.63;43.86
21433;BME280;18592;49.708;10.900;2022-10-04T13:45:57;99239.59;;;25.44;44.12
21433;BME280;18592;49.708;10.900;2022-10-04T13:55:46;99248.31;;;25.25;44.04
21433;BME280;18592;49.708;10.900;2022-10-04T13:58:41;99244.38;;;25.18;42.54
21433;BME280;18592;49.708;10.900;2022-10-04T14:01:01;99245.72;;;25.12;43.99
21433;BME280;18592;49.708;10.900;2022-10-04T14:06:04;99237.34;;;24.95;43.72
21433;BME280;18592;49.708;10.900;2022-10-04T14:10:46;99245.84;;;24.73;43.32
21433;BME280;18592;49.708;10.900;2022-10-04T14:13:16;99246.34;;;24.66;43.45
21433;BME280;18592;49.708;10.900;2022-10-04T14:18:02;99240.22;;;24.47;43.90
21433;BME280;18592;49.708;10.900;2022-10-04T14:20:27;99229.09;;;24.38;42.35
21433;BME280;18592;49.708;10.900;2022-10-04T14:22:53;99230.72;;;24.31;43.39
21433;BME280;18592;49.708;10.900;2022-10-04T14:33:00;99226.16;;;23.95;43.57
21433;BME280;18592;49.708;10.900;2022-10-04T14:35:21;99221.19;;;23.84;43.45
21433;BME280;18592;49.708;10.900;2022-10-04T14:50:03;99212.50;;;23.46;43.39
21433;BME280;18592;49.708;10.900;2022-10-04T14:57:10;99207.63;;;23.29;44.34
21433;BME280;18592;49.708;10.900;2022-10-04T15:01:24;99208.69;;;23.20;44.50
21433;BME280;18592;49.708;10.900;2022-10-04T15:03:49;99203.25;;;23.15;44.13
21433;BME280;18592;49.708;10.900;2022-10-04T15:06:06;99197.81;;;23.10;44.29
21433;BME280;18592;49.708;10.900;2022-10-04T15:10:21;99198.63;;;23.02;44.30
21433;BME280;18592;49.708;10.900;2022-10-04T15:17:07;99193.25;;;22.83;44.33
21433;BME280;18592;49.708;10.900;2022-10-04T15:27:48;99177.88;;;22.63;44.68
21433;BME280;18592;49.708;10.900;2022-10-04T15:30:08;99179.09;;;22.57;44.68
21433;BME280;18592;49.708;10.900;2022-10-04T15:32:40;99175.09;;;22.50;44.63
21433;BME280;18592;49.708;10.900;2022-10-04T15:44:47;99183.84;;;22.21;44.91
21433;BME280;18592;49.708;10.900;2022-10-04T15:49:34;99175.75;;;22.11;44.99
21433;BME280;18592;49.708;10.900;2022-10-04T15:51:48;99172.75;;;22.07;45.11
21433;BME280;18592;49.708;10.900;2022-10-04T15:56:50;99178.84;;;21.96;45.07
21433;BME280;18592;49.708;10.900;2022-10-04T15:59:24;99183.16;;;21.88;44.94
21433;BME280;18592;49.708;10.900;2022-10-04T16:04:13;99179.94;;;21.81;45.25
21433;BME280;18592;49.708;10.900;2022-10-04T16:06:26;99174.50;;;21.76;45.28
21433;BME280;18592;49.708;10.900;2022-10-04T16:08:44;99180.16;;;21.71;45.26
21433;BME280;18592;49.708;10.900;2022-10-04T16:15:45;99189.94;;;21.55;45.50
21433;BME280;18592;49.708;10.900;2022-10-04T16:20:37;99177.69;;;21.42;45.22
21433;BME280;18592;49.708;10.900;2022-10-04T16:23:20;99178.91;;;21.36;45.48
21433;BME280;18592;49.708;10.900;2022-10-04T16:30:07;99173.97;;;21.20;45.44
21433;BME280;18592;49.708;10.900;2022-10-04T16:35:05;99178.53;;;21.11;45.60
21433;BME280;18592;49.708;10.900;2022-10-04T16:39:55;99178.50;;;20.97;45.63
21433;BME280;18592;49.708;10.900;2022-10-04T16:42:11;99175.81;;;20.92;45.47
21433;BME280;18592;49.708;10.900;2022-10-04T16:46:37;99173.50;;;20.80;45.56
21433;BME280;18592;49.708;10.900;2022-10-04T16:55:34;99167.78;;;20.58;45.88
21433;BME280;18592;49.708;10.900;2022-10-04T16:57:38;99170.91;;;20.52;45.93
21433;BME280;18592;49.708;10.900;2022-10-04T16:59:46;99176.53;;;20.47;45.83
21433;BME280;18592;49.708;10.900;2022-10-04T17:12:32;99200.94;;;20.02;45.76
21433;BME280;18592;49.708;10.900;2022-10-04T17:16:50;99195.31;;;19.89;45.75
21433;BME280;18592;49.708;10.900;2022-10-04T17:19:29;99196.25;;;19.79;46.12
21433;BME280;18592;49.708;10.900;2022-10-04T17:26:47;99203.75;;;19.55;46.11
21433;BME280;18592;49.708;10.900;2022-10-04T17:29:17;99209.91;;;19.47;46.30
21433;BME280;18592;49.708;10.900;2022-10-04T17:34:30;99212.88;;;19.27;46.26
21433;BME280;18592;49.708;10.900;2022-10-04T17:36:49;99203.53;;;19.18;46.18
21433;BME280;18592;49.708;10.900;2022-10-04T17:39:16;99203.88;;;19.11;46.41
21433;BME280;18592;49.708;10.900;2022-10-04T17:51:48;99197.94;;;18.65;46.80
21433;BME280;18592;49.708;10.900;2022-10-04T17:54:14;99199.34;;;18.58;46.78
21433;BME280;18592;49.708;10.900;2022-10-04T17:56:57;99197.50;;;18.48;46.97
21433;BME280;18592;49.708;10.900;2022-10-04T17:59:09;99191.44;;;18.41;46.92
21433;BME280;18592;49.708;10.900;2022-10-04T18:01:25;99189.28;;;18.33;46.82
21433;BME280;18592;49.708;10.900;2022-10-04T18:03:49;99192.66;;;18.25;46.87
21433;BME280;18592;49.708;10.900;2022-10-04T18:05:57;99194.59;;;18.19;47.00
21433;BME280;18592;49.708;10.900;2022-10-04T18:12:58;99193.09;;;17.98;47.30
21433;BME280;18592;49.708;10.900;2022-10-04T18:15:09;99190.63;;;17.92;47.24
21433;BME280;18592;49.708;10.900;2022-10-04T18:17:38;99193.16;;;17.83;47.21
21433;BME280;18592;49.708;10.900;2022-10-04T18:21:51;99199.53;;;17.73;47.52
21433;BME280;18592;49.708;10.900;2022-10-04T18:24:01;99195.41;;;17.66;47.25
21433;BME280;18592;49.708;10.900;2022-10-04T18:26:18;99187.47;;;17.59;47.51
21433;BME280;18592;49.708;10.900;2022-10-04T18:28:21;99197.41;;;17.55;47.59